Cuneo / Levaldigi, Italy
Alba: 7:28 AM UTC1
Tramonto: 5:58 PM UTC1
 Lat: 44.53N, Lon: 7.62E
ICAO Used: LIMZ
Condizioni Meteo Attuali Aggiornate: 16.02.2019 alle 19:50 UTC
Quasi Sereno
Quasi Sereno
Sereno
Quasi Sereno
Temp: 1°C
Umidita': 86%
Direz/Vel. Vento: SW 3 / KT raffiche
Pressione: 1029 hPa
Punto di rugiada: -1°C
Temperatura percepita: 1°C
Visibilitą: >10 KM (ottima)
Temperatura percepita in
presenza di vento (Wind Chill)
:
-1°C
T. max (ultime 24 ore): 15°C
T. min (ultime 24 ore): -1°C


METAR ORIGINALE
LIMZ 161950Z 23003KT CAVOK 01/M01 Q1029



[ Indietro ]


Elaborazione dati by Datameteo.com - Lrc srl Copyright ©, All rights reserved.